Time;durP1;ratioP1;P1;durP2;ratioP2;P2;SDS_P1;SDS_P2;PMS_P1;PMS_P2;Temp;Humidity;BMP_temperature;BMP_pressure;BME280_temperature;BME280_humidity;BME280_pressure;Samples;Min_cycle;Max_cycle;Signal;HPM_P1;HPM_P2
2021/12/12 00:01:30;;;;;;;;;;;;;;;;;;5135166;27;19953;-89
2021/12/12 00:04:04;;;;;;;;;;;;;;;;;;5134713;28;19960;-88
2021/12/12 00:06:31;;;;;;;;;;;;;;;;;;5134746;28;19960;-88
2021/12/12 00:08:58;;;;;;;;;;;;;;;;;;5134775;28;19994;-88
2021/12/12 00:11:25;;;;;;;;;;;;;;;;;;5134711;28;20026;-89
2021/12/12 00:13:52;;;;;;;;;;;;;;;;;;5134704;28;20006;-88
2021/12/12 00:16:19;;;;;;;;;;;;;;;;;;5134547;27;20028;-88
2021/12/12 00:18:46;;;;;;;;;;;;;;;;;;5134507;28;20358;-89
2021/12/12 00:21:13;;;;;;;;;;;;;;;;;;5134756;27;20050;-89
2021/12/12 00:23:40;;;;;;;;;;;;;;;;;;5134832;27;20006;-88
2021/12/12 00:26:08;;;;;;;;;;;;;;;;;;5135190;28;19948;-88
2021/12/12 00:28:35;;;;;;;;;;;;;;;;;;5134699;27;19944;-88
2021/12/12 00:31:07;;;;;;;;;;;;;;;;;;5137268;27;19986;-88
2021/12/12 00:33:34;;;;;;;;;;;;;;;;;;5138319;27;19948;-88
2021/12/12 00:36:02;;;;;;;;;;;;;;;;;;5139632;27;19996;-87
2021/12/12 00:38:29;;;;;;;;;;;;;;;;;;5139786;27;19949;-89
2021/12/12 00:40:57;;;;;;;;;;;;;;;;;;5142621;27;20014;-88
2021/12/12 00:43:24;;;;;;;;;;;;;;;;;;5138897;27;20014;-88
2021/12/12 00:45:51;;;;;;;;;;;;;;;;;;5138357;27;20438;-88
2021/12/12 00:48:18;;;;;;;;;;;;;;;;;;5138224;27;19981;-88
2021/12/12 00:50:45;;;;;;;;;;;;;;;;;;5137993;27;20458;-88
2021/12/12 00:53:12;;;;;;;;;;;;;;;;;;5138163;27;20034;-88
2021/12/12 00:55:39;;;;;;;;;;;;;;;;;;5137878;27;20034;-87
2021/12/12 00:58:06;;;;;;;;;;;;;;;;;;5138057;27;19982;-88
2021/12/12 01:00:36;;;;;;;;;;;;;;;;;;5138012;27;20000;-88
2021/12/12 01:03:03;;;;;;;;;;;;;;;;;;5137973;27;19974;-88
2021/12/12 01:05:30;;;;;;;;;;;;;;;;;;5137713;27;20006;-88
2021/12/12 01:07:57;;;;;;;;;;;;;;;;;;5138032;27;20039;-88
2021/12/12 01:10:24;;;;;;;;;;;;;;;;;;5137551;27;20038;-87
2021/12/12 01:12:51;;;;;;;;;;;;;;;;;;5137626;27;20052;-88
2021/12/12 01:15:18;;;;;;;;;;;;;;;;;;5137738;27;20042;-88
2021/12/12 01:17:45;;;;;;;;;;;;;;;;;;5137546;27;20048;-88
2021/12/12 01:20:12;;;;;;;;;;;;;;;;;;5137547;27;19945;-88
2021/12/12 01:22:39;;;;;;;;;;;;;;;;;;5137527;27;20011;-88
2021/12/12 01:25:06;;;;;;;;;;;;;;;;;;5137423;27;20044;-88
2021/12/12 01:27:33;;;;;;;;;;;;;;;;;;5137410;27;19995;-87
2021/12/12 01:30:01;;;;;;;;;;;;;;;;;;5137276;27;19988;-88
2021/12/12 01:32:31;;;;;;;;;;;;;;;;;;5137243;27;20347;-87
2021/12/12 01:34:58;;;;;;;;;;;;;;;;;;5137368;27;19951;-88
2021/12/12 01:37:37;;;;;;;;;;;;;;;;;;5137242;27;20012;-88
2021/12/12 01:40:04;;;;;;;;;;;;;;;;;;5136889;27;20032;-87
2021/12/12 01:42:32;;;;;;;;;;;;;;;;;;5136885;27;20040;-88
2021/12/12 01:44:59;;;;;;;;;;;;;;;;;;5136916;27;20424;-88
2021/12/12 01:47:26;;;;;;;;;;;;;;;;;;5137131;27;19984;-88
2021/12/12 01:49:53;;;;;;;;;;;;;;;;;;5137474;27;19992;-88
2021/12/12 01:52:20;;;;;;;;;;;;;;;;;;5137217;27;20024;-88
2021/12/12 01:54:47;;;;;;;;;;;;;;;;;;5137249;27;20006;-88
2021/12/12 01:57:14;;;;;;;;;;;;;;;;;;5137045;27;19986;-88
2021/12/12 01:59:41;;;;;;;;;;;;;;;;;;5136746;27;20053;-88
2021/12/12 02:02:08;;;;;;;;;;;;;;;;;;5136853;27;20035;-88
2021/12/12 02:04:35;;;;;;;;;;;;;;;;;;5136526;27;20050;-88
2021/12/12 02:07:02;;;;;;;;;;;;;;;;;;5137288;27;20374;-89
2021/12/12 02:09:29;;;;;;;;;;;;;;;;;;5137345;27;20054;-89
2021/12/12 02:11:56;;;;;;;;;;;;;;;;;;5136933;27;19999;-88
2021/12/12 02:14:23;;;;;;;;;;;;;;;;;;5136691;27;19987;-88
2021/12/12 02:16:50;;;;;;;;;;;;;;;;;;5136598;27;20010;-88
2021/12/12 02:19:18;;;;;;;;;;;;;;;;;;5138676;27;20363;-88
2021/12/12 02:21:58;;;;;;;;;;;;;;;;;;5139360;27;20314;-89
2021/12/12 02:35:44;;;;;;;;;;;;;;;;;;5136042;27;20429;-88
2021/12/12 02:38:11;;;;;;;;;;;;;;;;;;5136140;27;20001;-89
2021/12/12 02:40:38;;;;;;;;;;;;;;;;;;5135811;27;20011;-89
2021/12/12 02:43:07;;;;;;;;;;;;;;;;;;5135930;27;20042;-88
2021/12/12 02:45:35;;;;;;;;;;;;;;;;;;5135906;27;20053;-88
2021/12/12 02:48:05;;;;;;;;;;;;;;;;;;5135103;27;20352;-88
2021/12/12 02:50:33;;;;;;;;;;;;;;;;;;5135953;27;19945;-88
2021/12/12 02:53:00;;;;;;;;;;;;;;;;;;5135050;27;19950;-88
2021/12/12 02:55:27;;;;;;;;;;;;;;;;;;5136005;27;20030;-89
2021/12/12 02:57:54;;;;;;;;;;;;;;;;;;5139067;27;19954;-88
2021/12/12 03:00:21;;;;;;;;;;;;;;;;;;5138288;27;20049;-88
2021/12/12 03:02:48;;;;;;;;;;;;;;;;;;5136293;27;19947;-88
2021/12/12 03:05:15;;;;;;;;;;;;;;;;;;5135699;27;20083;-89
2021/12/12 03:07:42;;;;;;;;;;;;;;;;;;5135708;27;20058;-89
2021/12/12 03:10:09;;;;;;;;;;;;;;;;;;5134925;27;19996;-88
2021/12/12 03:12:36;;;;;;;;;;;;;;;;;;5135731;27;20052;-89
2021/12/12 03:15:03;;;;;;;;;;;;;;;;;;5135437;27;20041;-89
2021/12/12 03:17:30;;;;;;;;;;;;;;;;;;5135536;27;20035;-89
2021/12/12 03:19:57;;;;;;;;;;;;;;;;;;5135265;27;20461;-89
2021/12/12 03:22:24;;;;;;;;;;;;;;;;;;5135724;27;19990;-90
2021/12/12 03:24:51;;;;;;;;;;;;;;;;;;5135635;27;20044;-88
2021/12/12 03:27:20;;;;;;;;;;;;;;;;;;5135591;27;20013;-89
2021/12/12 03:29:47;;;;;;;;;;;;;;;;;;5135403;27;19955;-89
2021/12/12 03:32:14;;;;;;;;;;;;;;;;;;5135595;27;20039;-89
2021/12/12 03:34:41;;;;;;;;;;;;;;;;;;5135185;27;20465;-89
2021/12/12 03:37:08;;;;;;;;;;;;;;;;;;5135913;27;20034;-88
2021/12/12 03:39:35;;;;;;;;;;;;;;;;;;5137308;27;20015;-88
2021/12/12 03:42:02;;;;;;;;;;;;;;;;;;5136387;27;19985;-89
2021/12/12 03:44:29;;;;;;;;;;;;;;;;;;5135038;27;20409;-89
2021/12/12 03:46:56;;;;;;;;;;;;;;;;;;5135473;27;20046;-89
2021/12/12 03:49:23;;;;;;;;;;;;;;;;;;5135332;27;19997;-89
2021/12/12 03:51:50;;;;;;;;;;;;;;;;;;5135027;27;19941;-89
2021/12/12 03:54:17;;;;;;;;;;;;;;;;;;5134988;27;20044;-89
2021/12/12 03:56:44;;;;;;;;;;;;;;;;;;5135031;27;20030;-88
2021/12/12 03:59:11;;;;;;;;;;;;;;;;;;5137902;27;19949;-88
2021/12/12 04:01:38;;;;;;;;;;;;;;;;;;5142592;27;19994;-89
2021/12/12 04:04:05;;;;;;;;;;;;;;;;;;5137297;27;20016;-89
2021/12/12 04:06:32;;;;;;;;;;;;;;;;;;5142912;27;20377;-89
2021/12/12 04:08:59;;;;;;;;;;;;;;;;;;5140006;27;20053;-89
2021/12/12 04:11:26;;;;;;;;;;;;;;;;;;5139557;27;19985;-89
2021/12/12 04:13:53;;;;;;;;;;;;;;;;;;5138863;27;19993;-89
2021/12/12 04:16:20;;;;;;;;;;;;;;;;;;5139376;27;20004;-89
2021/12/12 04:18:47;;;;;;;;;;;;;;;;;;5138933;27;19984;-89
2021/12/12 04:21:14;;;;;;;;;;;;;;;;;;5138898;27;20377;-89
2021/12/12 04:23:41;;;;;;;;;;;;;;;;;;5138884;27;20015;-89
2021/12/12 04:26:08;;;;;;;;;;;;;;;;;;5138874;27;20015;-89
2021/12/12 04:28:35;;;;;;;;;;;;;;;;;;5139022;27;20027;-88
2021/12/12 04:31:02;;;;;;;;;;;;;;;;;;5138908;27;20383;-89
2021/12/12 04:33:29;;;;;;;;;;;;;;;;;;5139095;27;20026;-89
2021/12/12 04:35:56;;;;;;;;;;;;;;;;;;5139558;27;20040;-89
2021/12/12 04:38:23;;;;;;;;;;;;;;;;;;5138752;27;19956;-89
2021/12/12 04:40:51;;;;;;;;;;;;;;;;;;5138200;27;20063;-89
2021/12/12 04:43:18;;;;;;;;;;;;;;;;;;5138414;27;19986;-89
2021/12/12 04:45:47;;;;;;;;;;;;;;;;;;5138752;27;20012;-89
2021/12/12 04:51:02;;;;;;;;;;;;;;;;;;5138597;27;19941;-89
2021/12/12 04:53:29;;;;;;;;;;;;;;;;;;5138511;27;20044;-89
2021/12/12 04:55:56;;;;;;;;;;;;;;;;;;5138592;27;20052;-88
2021/12/12 04:58:23;;;;;;;;;;;;;;;;;;5138722;27;20353;-89
2021/12/12 05:00:50;;;;;;;;;;;;;;;;;;5138077;27;20011;-89
2021/12/12 05:03:17;;;;;;;;;;;;;;;;;;5136524;27;19946;-90
2021/12/12 05:05:44;;;;;;;;;;;;;;;;;;5137964;27;20162;-89
2021/12/12 05:08:11;;;;;;;;;;;;;;;;;;5138363;27;20049;-88
2021/12/12 05:10:38;;;;;;;;;;;;;;;;;;5137900;27;20000;-89
2021/12/12 05:13:05;;;;;;;;;;;;;;;;;;5138148;27;20044;-89
2021/12/12 05:15:32;;;;;;;;;;;;;;;;;;5137045;27;20388;-89
2021/12/12 05:17:59;;;;;;;;;;;;;;;;;;5137995;27;19986;-89
2021/12/12 05:20:26;;;;;;;;;;;;;;;;;;5138417;27;20349;-89
2021/12/12 05:22:53;;;;;;;;;;;;;;;;;;5137900;27;20039;-89
2021/12/12 05:25:20;;;;;;;;;;;;;;;;;;5137702;27;20068;-89
2021/12/12 05:27:47;;;;;;;;;;;;;;;;;;5137917;27;20046;-89
2021/12/12 05:30:14;;;;;;;;;;;;;;;;;;5138013;27;19999;-89
2021/12/12 05:32:41;;;;;;;;;;;;;;;;;;5137694;27;19953;-89
2021/12/12 05:35:08;;;;;;;;;;;;;;;;;;5137562;27;19996;-88
2021/12/12 05:37:35;;;;;;;;;;;;;;;;;;5137762;27;20031;-89
2021/12/12 05:40:02;;;;;;;;;;;;;;;;;;5137256;27;19967;-88
2021/12/12 05:42:30;;;;;;;;;;;;;;;;;;5138342;27;20038;-89
2021/12/12 05:44:57;;;;;;;;;;;;;;;;;;5148746;27;20000;-89
2021/12/12 05:47:24;;;;;;;;;;;;;;;;;;5147906;27;20388;-89
2021/12/12 05:49:51;;;;;;;;;;;;;;;;;;5147057;27;19991;-89
2021/12/12 05:52:18;;;;;;;;;;;;;;;;;;5137887;27;20041;-89
2021/12/12 05:54:45;;;;;;;;;;;;;;;;;;5137345;27;20446;-89
2021/12/12 05:57:12;;;;;;;;;;;;;;;;;;5137323;27;20053;-89
2021/12/12 05:59:39;;;;;;;;;;;;;;;;;;5137034;27;19999;-88
2021/12/12 06:02:06;;;;;;;;;;;;;;;;;;5137080;27;20040;-88
2021/12/12 06:04:33;;;;;;;;;;;;;;;;;;5136805;27;20391;-88
2021/12/12 06:07:02;;;;;;;;;;;;;;;;;;5136913;27;19983;-89
2021/12/12 06:09:29;;;;;;;;;;;;;;;;;;5136754;27;19977;-89
2021/12/12 06:11:56;;;;;;;;;;;;;;;;;;5136815;27;20403;-88
2021/12/12 06:14:24;;;;;;;;;;;;;;;;;;5136438;27;20032;-90
2021/12/12 06:16:51;;;;;;;;;;;;;;;;;;5137091;27;19953;-89
2021/12/12 06:19:18;;;;;;;;;;;;;;;;;;5136896;27;19986;-89
2021/12/12 06:21:45;;;;;;;;;;;;;;;;;;5136659;27;20059;-89
2021/12/12 06:24:12;;;;;;;;;;;;;;;;;;5136784;27;19993;-88
2021/12/12 06:26:39;;;;;;;;;;;;;;;;;;5136615;27;19987;-89
2021/12/12 06:29:06;;;;;;;;;;;;;;;;;;5136527;27;20041;-89
2021/12/12 06:31:33;;;;;;;;;;;;;;;;;;5136878;27;20000;-89
2021/12/12 06:34:00;;;;;;;;;;;;;;;;;;5136720;27;19987;-89
2021/12/12 06:36:27;;;;;;;;;;;;;;;;;;5136486;27;20007;-90
2021/12/12 06:38:54;;;;;;;;;;;;;;;;;;5136454;27;20472;-89
2021/12/12 06:41:21;;;;;;;;;;;;;;;;;;5136504;27;19997;-89
2021/12/12 06:43:48;;;;;;;;;;;;;;;;;;5136354;27;20000;-89
2021/12/12 06:46:15;;;;;;;;;;;;;;;;;;5136383;27;20057;-89
2021/12/12 06:48:42;;;;;;;;;;;;;;;;;;5136433;27;20377;-89
2021/12/12 06:51:09;;;;;;;;;;;;;;;;;;5136398;27;20362;-89
2021/12/12 06:53:36;;;;;;;;;;;;;;;;;;5138949;27;19943;-90
2021/12/12 06:56:04;;;;;;;;;;;;;;;;;;5142266;27;19996;-89
2021/12/12 06:58:31;;;;;;;;;;;;;;;;;;5141193;27;20027;-89
2021/12/12 07:00:58;;;;;;;;;;;;;;;;;;5141071;27;19979;-89
2021/12/12 07:03:25;;;;;;;;;;;;;;;;;;5139564;27;20006;-89
2021/12/12 07:05:52;;;;;;;;;;;;;;;;;;5136311;27;20016;-89
2021/12/12 07:08:19;;;;;;;;;;;;;;;;;;5135993;27;20349;-87
2021/12/12 07:10:46;;;;;;;;;;;;;;;;;;5135622;27;20050;-89
2021/12/12 07:13:13;;;;;;;;;;;;;;;;;;5135609;27;20396;-89
2021/12/12 07:15:40;;;;;;;;;;;;;;;;;;5135510;27;19999;-89
2021/12/12 07:18:07;;;;;;;;;;;;;;;;;;5135437;27;20036;-88
2021/12/12 07:20:34;;;;;;;;;;;;;;;;;;5135467;27;20038;-89
2021/12/12 07:23:01;;;;;;;;;;;;;;;;;;5136049;27;19992;-89
2021/12/12 07:25:29;;;;;;;;;;;;;;;;;;5135442;27;20064;-89
2021/12/12 07:27:56;;;;;;;;;;;;;;;;;;5144179;27;19988;-89
2021/12/12 07:30:23;;;;;;;;;;;;;;;;;;5139483;27;20412;-89
2021/12/12 07:32:50;;;;;;;;;;;;;;;;;;5144961;27;19977;-89
2021/12/12 07:35:17;;;;;;;;;;;;;;;;;;5135607;27;20050;-88
2021/12/12 07:37:44;;;;;;;;;;;;;;;;;;5135178;27;19999;-88
2021/12/12 07:40:11;;;;;;;;;;;;;;;;;;5134347;27;20321;-88
2021/12/12 07:42:38;;;;;;;;;;;;;;;;;;5135199;27;19990;-88
2021/12/12 07:45:05;;;;;;;;;;;;;;;;;;5135027;27;19963;-88
2021/12/12 07:47:32;;;;;;;;;;;;;;;;;;5135098;27;20043;-89
2021/12/12 07:49:59;;;;;;;;;;;;;;;;;;5135413;27;20025;-89
2021/12/12 07:52:26;;;;;;;;;;;;;;;;;;5134906;27;20402;-89
2021/12/12 07:54:53;;;;;;;;;;;;;;;;;;5135257;27;20048;-89
2021/12/12 07:57:20;;;;;;;;;;;;;;;;;;5134706;27;19987;-89
2021/12/12 07:59:47;;;;;;;;;;;;;;;;;;5135184;27;20031;-89
2021/12/12 08:02:14;;;;;;;;;;;;;;;;;;5134955;27;20466;-88
2021/12/12 08:04:41;;;;;;;;;;;;;;;;;;5135019;27;20029;-88
2021/12/12 08:07:08;;;;;;;;;;;;;;;;;;5133393;27;20037;-89
2021/12/12 08:09:35;;;;;;;;;;;;;;;;;;5134466;28;20042;-89
2021/12/12 08:12:02;;;;;;;;;;;;;;;;;;5135098;27;20043;-89
2021/12/12 08:14:29;;;;;;;;;;;;;;;;;;5134930;27;20031;-88
2021/12/12 08:16:56;;;;;;;;;;;;;;;;;;5134754;27;20040;-89
2021/12/12 08:19:23;;;;;;;;;;;;;;;;;;5133759;27;20316;-88
2021/12/12 08:21:52;;;;;;;;;;;;;;;;;;5134377;27;20359;-88
2021/12/12 08:24:19;;;;;;;;;;;;;;;;;;5134808;27;20317;-89
2021/12/12 08:26:46;;;;;;;;;;;;;;;;;;5134197;27;20417;-89
2021/12/12 08:29:13;;;;;;;;;;;;;;;;;;5133355;28;20362;-89
2021/12/12 08:31:40;;;;;;;;;;;;;;;;;;5134574;27;19957;-88
2021/12/12 08:34:07;;;;;;;;;;;;;;;;;;5134401;27;19992;-89
2021/12/12 08:36:34;;;;;;;;;;;;;;;;;;5134816;27;20039;-88
2021/12/12 08:39:01;;;;;;;;;;;;;;;;;;5134021;27;20032;-89
2021/12/12 08:41:28;;;;;;;;;;;;;;;;;;5134355;27;20358;-89
2021/12/12 08:43:56;;;;;;;;;;;;;;;;;;5134536;27;19950;-89
2021/12/12 08:46:23;;;;;;;;;;;;;;;;;;5134173;27;20011;-89
2021/12/12 08:48:50;;;;;;;;;;;;;;;;;;5134346;27;19960;-89
2021/12/12 08:51:18;;;;;;;;;;;;;;;;;;5135970;27;20479;-89
2021/12/12 08:53:46;;;;;;;;;;;;;;;;;;5137826;27;19955;-87
2021/12/12 08:56:19;;;;;;;;;;;;;;;;;;5138120;27;19947;-88
2021/12/12 08:58:46;;;;;;;;;;;;;;;;;;5139436;27;20096;-91
2021/12/12 09:01:13;;;;;;;;;;;;;;;;;;5138692;27;20035;-90
2021/12/12 09:03:40;;;;;;;;;;;;;;;;;;5137580;27;20036;-90
2021/12/12 09:06:07;;;;;;;;;;;;;;;;;;5137105;27;19959;-91
2021/12/12 09:08:34;;;;;;;;;;;;;;;;;;5138461;27;19990;-90
2021/12/12 09:11:01;;;;;;;;;;;;;;;;;;5149095;27;19951;-90
2021/12/12 09:13:28;;;;;;;;;;;;;;;;;;5144573;27;20053;-90
2021/12/12 09:15:55;;;;;;;;;;;;;;;;;;5139574;27;19994;-89
2021/12/12 09:18:22;;;;;;;;;;;;;;;;;;5138667;27;20001;-91
2021/12/12 09:20:52;;;;;;;;;;;;;;;;;;5137753;27;20000;-90
2021/12/12 09:23:19;;;;;;;;;;;;;;;;;;5137785;27;20444;-91
2021/12/12 09:25:50;;;;;;;;;;;;;;;;;;5137829;27;20011;-91
2021/12/12 09:28:17;;;;;;;;;;;;;;;;;;5138184;27;19945;-91
2021/12/12 09:30:44;;;;;;;;;;;;;;;;;;5137577;27;20328;-91
2021/12/12 09:33:12;;;;;;;;;;;;;;;;;;5138153;27;19989;-90
2021/12/12 09:35:39;;;;;;;;;;;;;;;;;;5138013;27;19943;-91
2021/12/12 09:38:06;;;;;;;;;;;;;;;;;;5137752;27;19991;-91
2021/12/12 09:40:33;;;;;;;;;;;;;;;;;;5137690;27;20070;-91
2021/12/12 09:43:00;;;;;;;;;;;;;;;;;;5137913;27;20042;-91
2021/12/12 09:45:28;;;;;;;;;;;;;;;;;;5137507;27;20059;-91
2021/12/12 09:48:02;;;;;;;;;;;;;;;;;;5137656;27;19957;-91
2021/12/12 09:53:14;;;;;;;;;;;;;;;;;;5137747;27;20012;-90
2021/12/12 09:55:41;;;;;;;;;;;;;;;;;;5137532;27;19994;-90
2021/12/12 09:58:08;;;;;;;;;;;;;;;;;;5137451;27;20042;-91
2021/12/12 10:00:35;;;;;;;;;;;;;;;;;;5138008;27;19994;-91
2021/12/12 10:03:02;;;;;;;;;;;;;;;;;;5137000;27;20036;-92
2021/12/12 10:05:30;;;;;;;;;;;;;;;;;;5137465;27;19968;-91
2021/12/12 10:07:57;;;;;;;;;;;;;;;;;;5137504;27;20359;-91
2021/12/12 10:10:24;;;;;;;;;;;;;;;;;;5137384;27;20035;-92
2021/12/12 10:12:51;;;;;;;;;;;;;;;;;;5137221;27;20000;-90
2021/12/12 10:15:18;;;;;;;;;;;;;;;;;;5137210;27;20043;-91
2021/12/12 10:17:45;;;;;;;;;;;;;;;;;;5136569;27;20048;-90
2021/12/12 10:20:12;;;;;;;;;;;;;;;;;;5136910;27;20371;-90
2021/12/12 10:22:39;;;;;;;;;;;;;;;;;;5135439;27;19952;-90
2021/12/12 10:25:06;;;;;;;;;;;;;;;;;;5136901;27;19988;-90
2021/12/12 10:27:33;;;;;;;;;;;;;;;;;;5136630;27;20040;-89
2021/12/12 10:30:00;;;;;;;;;;;;;;;;;;5136675;27;19995;-90
2021/12/12 10:32:27;;;;;;;;;;;;;;;;;;5136705;27;20048;-91
2021/12/12 10:34:54;;;;;;;;;;;;;;;;;;5136370;27;20031;-90
2021/12/12 10:37:21;;;;;;;;;;;;;;;;;;5136522;27;19994;-90
2021/12/12 10:39:48;;;;;;;;;;;;;;;;;;5136607;27;20021;-90
2021/12/12 10:42:15;;;;;;;;;;;;;;;;;;5135012;27;20002;-89
2021/12/12 10:44:42;;;;;;;;;;;;;;;;;;5136194;27;19992;-89
2021/12/12 10:47:09;;;;;;;;;;;;;;;;;;5136205;27;19965;-89
2021/12/12 10:49:36;;;;;;;;;;;;;;;;;;5136195;27;19941;-89
2021/12/12 10:52:03;;;;;;;;;;;;;;;;;;5135710;27;19996;-89
2021/12/12 10:54:30;;;;;;;;;;;;;;;;;;5150620;27;19994;-88
2021/12/12 10:56:57;;;;;;;;;;;;;;;;;;5145630;27;20037;-90
2021/12/12 10:59:24;;;;;;;;;;;;;;;;;;5142341;27;20033;-90
2021/12/12 11:01:51;;;;;;;;;;;;;;;;;;5137313;27;20004;-89
2021/12/12 11:04:18;;;;;;;;;;;;;;;;;;5135496;27;20363;-89
2021/12/12 11:06:45;;;;;;;;;;;;;;;;;;5135718;27;20049;-89
2021/12/12 11:09:12;;;;;;;;;;;;;;;;;;5135584;27;20027;-91
2021/12/12 11:11:46;;;;;;;;;;;;;;;;;;5135890;27;20474;-89
2021/12/12 11:14:13;;;;;;;;;;;;;;;;;;5135285;27;20034;-89
2021/12/12 11:16:40;;;;;;;;;;;;;;;;;;5135844;27;19954;-89
2021/12/12 11:19:07;;;;;;;;;;;;;;;;;;5136281;27;20416;-92
2021/12/12 11:21:35;;;;;;;;;;;;;;;;;;5136171;27;19958;-90
2021/12/12 11:24:02;;;;;;;;;;;;;;;;;;5135544;27;19989;-91
2021/12/12 11:26:29;;;;;;;;;;;;;;;;;;5135254;27;20052;-91
2021/12/12 11:28:56;;;;;;;;;;;;;;;;;;5134714;27;20016;-88
2021/12/12 11:31:24;;;;;;;;;;;;;;;;;;5134690;27;20036;-89
2021/12/12 11:33:51;;;;;;;;;;;;;;;;;;5134910;27;19943;-87
2021/12/12 11:36:18;;;;;;;;;;;;;;;;;;5134942;27;20351;-90
2021/12/12 11:38:46;;;;;;;;;;;;;;;;;;5135469;27;20035;-88
2021/12/12 11:41:13;;;;;;;;;;;;;;;;;;5135102;27;19963;-89
2021/12/12 11:43:40;;;;;;;;;;;;;;;;;;5134935;27;20033;-89
2021/12/12 11:46:07;;;;;;;;;;;;;;;;;;5135125;27;20395;-89
2021/12/12 11:48:34;;;;;;;;;;;;;;;;;;5135107;27;20038;-88
2021/12/12 11:51:01;;;;;;;;;;;;;;;;;;5134710;27;20032;-88
2021/12/12 11:53:28;;;;;;;;;;;;;;;;;;5135097;27;20055;-89
2021/12/12 11:55:55;;;;;;;;;;;;;;;;;;5134897;28;20002;-91
2021/12/12 11:58:22;;;;;;;;;;;;;;;;;;5135149;27;20039;-89
2021/12/12 12:00:50;;;;;;;;;;;;;;;;;;5134521;28;19941;-89
2021/12/12 12:03:21;;;;;;;;;;;;;;;;;;5134951;28;19927;-87
2021/12/12 12:05:48;;;;;;;;;;;;;;;;;;5134996;28;20377;-89
2021/12/12 12:08:15;;;;;;;;;;;;;;;;;;5135029;28;20024;-89
2021/12/12 12:10:42;;;;;;;;;;;;;;;;;;5134646;27;20042;-89
2021/12/12 12:13:10;;;;;;;;;;;;;;;;;;5134707;28;20473;-89
2021/12/12 12:15:37;;;;;;;;;;;;;;;;;;5134694;28;20364;-89
2021/12/12 12:18:04;;;;;;;;;;;;;;;;;;5134966;28;20025;-89
2021/12/12 12:20:31;;;;;;;;;;;;;;;;;;5134845;27;20036;-88
2021/12/12 12:22:58;;;;;;;;;;;;;;;;;;5135496;27;19995;-89
2021/12/12 12:25:27;;;;;;;;;;;;;;;;;;5136878;27;20016;-89
2021/12/12 12:27:54;;;;;;;;;;;;;;;;;;5138443;27;20442;-89
2021/12/12 12:30:21;;;;;;;;;;;;;;;;;;5139384;27;19946;-88
2021/12/12 12:32:48;;;;;;;;;;;;;;;;;;5138605;27;20046;-88
2021/12/12 12:35:15;;;;;;;;;;;;;;;;;;5138512;27;19988;-89
2021/12/12 12:37:42;;;;;;;;;;;;;;;;;;5141325;27;20348;-88
2021/12/12 12:40:09;;;;;;;;;;;;;;;;;;5138547;27;20058;-88
2021/12/12 12:42:38;;;;;;;;;;;;;;;;;;5143457;27;20367;-88
2021/12/12 12:45:05;;;;;;;;;;;;;;;;;;5138255;27;19947;-89
2021/12/12 12:47:32;;;;;;;;;;;;;;;;;;5135161;27;20067;-89
2021/12/12 12:50:03;;;;;;;;;;;;;;;;;;5138093;27;19985;-88
2021/12/12 12:52:30;;;;;;;;;;;;;;;;;;5138107;27;19956;-89
2021/12/12 12:54:57;;;;;;;;;;;;;;;;;;5138311;27;19950;-89
2021/12/12 12:57:24;;;;;;;;;;;;;;;;;;5138306;27;20043;-89
2021/12/12 12:59:51;;;;;;;;;;;;;;;;;;5138388;27;20046;-89
2021/12/12 13:02:18;;;;;;;;;;;;;;;;;;5136924;27;19997;-89
2021/12/12 13:04:47;;;;;;;;;;;;;;;;;;5138179;27;19992;-90
2021/12/12 13:07:14;;;;;;;;;;;;;;;;;;5138000;27;19964;-88
2021/12/12 13:09:41;;;;;;;;;;;;;;;;;;5137952;27;20037;-89
2021/12/12 13:12:08;;;;;;;;;;;;;;;;;;5137914;27;20053;-90
2021/12/12 13:14:35;;;;;;;;;;;;;;;;;;5137639;27;19949;-89
2021/12/12 13:17:02;;;;;;;;;;;;;;;;;;5137843;27;19956;-89
2021/12/12 13:19:29;;;;;;;;;;;;;;;;;;5137242;27;20009;-89
2021/12/12 13:22:01;;;;;;;;;;;;;;;;;;5137838;27;20371;-88
2021/12/12 13:24:28;;;;;;;;;;;;;;;;;;5137302;27;19997;-89
2021/12/12 13:27:02;;;;;;;;;;;;;;;;;;5136537;27;20042;-89
2021/12/12 13:29:31;;;;;;;;;;;;;;;;;;5136529;27;19994;-89
2021/12/12 13:31:58;;;;;;;;;;;;;;;;;;5137409;27;19964;-88
2021/12/12 13:34:25;;;;;;;;;;;;;;;;;;5137570;27;20012;-91
2021/12/12 13:36:52;;;;;;;;;;;;;;;;;;5136503;27;20318;-88
2021/12/12 13:39:19;;;;;;;;;;;;;;;;;;5137412;27;19995;-89
2021/12/12 13:41:45;;;;;;;;;;;;;;;;;;5137897;27;20034;-87
2021/12/12 13:44:12;;;;;;;;;;;;;;;;;;5137528;27;20496;-89
2021/12/12 13:46:39;;;;;;;;;;;;;;;;;;5136771;27;20006;-88
2021/12/12 13:49:06;;;;;;;;;;;;;;;;;;5137268;27;19998;-88
2021/12/12 13:51:33;;;;;;;;;;;;;;;;;;5136837;27;20465;-89
2021/12/12 13:54:00;;;;;;;;;;;;;;;;;;5136953;27;20033;-89
2021/12/12 13:56:27;;;;;;;;;;;;;;;;;;5137947;27;20038;-90
2021/12/12 13:58:54;;;;;;;;;;;;;;;;;;5137657;27;20065;-89
2021/12/12 14:01:21;;;;;;;;;;;;;;;;;;5137012;27;20048;-89
2021/12/12 14:03:48;;;;;;;;;;;;;;;;;;5136053;27;20401;-89
2021/12/12 14:06:15;;;;;;;;;;;;;;;;;;5136014;27;20044;-90
2021/12/12 14:08:42;;;;;;;;;;;;;;;;;;5135974;27;19997;-91
2021/12/12 14:11:09;;;;;;;;;;;;;;;;;;5135898;27;19989;-89
2021/12/12 14:13:36;;;;;;;;;;;;;;;;;;5136297;27;20036;-89
2021/12/12 14:16:03;;;;;;;;;;;;;;;;;;5135838;27;20054;-89
2021/12/12 14:18:30;;;;;;;;;;;;;;;;;;5137172;27;19998;-89
2021/12/12 14:20:57;;;;;;;;;;;;;;;;;;5141349;27;20480;-89
2021/12/12 14:23:24;;;;;;;;;;;;;;;;;;5139483;27;20000;-90
2021/12/12 14:25:51;;;;;;;;;;;;;;;;;;5146863;27;20000;-90
2021/12/12 14:28:18;;;;;;;;;;;;;;;;;;5136948;27;20520;-89
2021/12/12 14:30:45;;;;;;;;;;;;;;;;;;5136957;27;20468;-89
2021/12/12 14:33:12;;;;;;;;;;;;;;;;;;5136966;27;19992;-90
2021/12/12 14:35:39;;;;;;;;;;;;;;;;;;5136227;27;20006;-90
2021/12/12 14:38:06;;;;;;;;;;;;;;;;;;5136506;27;20037;-90
2021/12/12 14:40:33;;;;;;;;;;;;;;;;;;5136177;27;20004;-90
2021/12/12 14:43:00;;;;;;;;;;;;;;;;;;5136471;27;20011;-89
2021/12/12 14:45:27;;;;;;;;;;;;;;;;;;5135628;27;20057;-89
2021/12/12 14:47:54;;;;;;;;;;;;;;;;;;5135378;27;20050;-90
2021/12/12 14:50:21;;;;;;;;;;;;;;;;;;5135399;27;20040;-89
2021/12/12 14:52:48;;;;;;;;;;;;;;;;;;5135925;27;20468;-90
2021/12/12 14:55:15;;;;;;;;;;;;;;;;;;5135907;27;20047;-89
2021/12/12 14:57:42;;;;;;;;;;;;;;;;;;5135969;27;19987;-89
2021/12/12 15:00:09;;;;;;;;;;;;;;;;;;5135058;27;20031;-89
2021/12/12 15:02:36;;;;;;;;;;;;;;;;;;5135391;27;20377;-89
2021/12/12 15:05:03;;;;;;;;;;;;;;;;;;5135017;27;19979;-89
2021/12/12 15:07:30;;;;;;;;;;;;;;;;;;5134671;27;19998;-89
2021/12/12 15:09:57;;;;;;;;;;;;;;;;;;5133247;27;19995;-88
2021/12/12 15:12:26;;;;;;;;;;;;;;;;;;5135387;27;20391;-89
2021/12/12 15:14:53;;;;;;;;;;;;;;;;;;5134994;27;19948;-88
2021/12/12 15:17:22;;;;;;;;;;;;;;;;;;5132172;27;20321;-88
2021/12/12 15:19:49;;;;;;;;;;;;;;;;;;5134806;27;19950;-89
2021/12/12 15:22:18;;;;;;;;;;;;;;;;;;5134963;27;20041;-89
2021/12/12 15:24:45;;;;;;;;;;;;;;;;;;5134770;27;19959;-89
2021/12/12 15:27:12;;;;;;;;;;;;;;;;;;5134919;27;20047;-89
2021/12/12 15:29:39;;;;;;;;;;;;;;;;;;5134510;27;20034;-89
2021/12/12 15:32:06;;;;;;;;;;;;;;;;;;5134750;27;20036;-89
2021/12/12 15:34:33;;;;;;;;;;;;;;;;;;5134904;27;19988;-89
2021/12/12 15:37:00;;;;;;;;;;;;;;;;;;5134720;27;20369;-88
2021/12/12 15:39:28;;;;;;;;;;;;;;;;;;5134393;27;20002;-88
2021/12/12 15:41:55;;;;;;;;;;;;;;;;;;5134584;27;19972;-89
2021/12/12 15:44:22;;;;;;;;;;;;;;;;;;5134766;27;20028;-88
2021/12/12 15:46:49;;;;;;;;;;;;;;;;;;5134498;27;19975;-89
2021/12/12 15:49:16;;;;;;;;;;;;;;;;;;5134193;27;19987;-87
2021/12/12 15:51:43;;;;;;;;;;;;;;;;;;5135144;27;20023;-88
2021/12/12 15:54:10;;;;;;;;;;;;;;;;;;5135077;27;19941;-89
2021/12/12 15:56:37;;;;;;;;;;;;;;;;;;5134389;27;20412;-89
2021/12/12 15:59:04;;;;;;;;;;;;;;;;;;5133517;27;19957;-89
2021/12/12 16:01:31;;;;;;;;;;;;;;;;;;5135357;27;19958;-89
2021/12/12 16:03:58;;;;;;;;;;;;;;;;;;5139248;27;19949;-89
2021/12/12 16:06:25;;;;;;;;;;;;;;;;;;5138184;27;20041;-89
2021/12/12 16:08:53;;;;;;;;;;;;;;;;;;5141494;27;20435;-88
2021/12/12 16:11:20;;;;;;;;;;;;;;;;;;5136145;27;20375;-88
2021/12/12 16:13:47;;;;;;;;;;;;;;;;;;5135671;27;19962;-88
2021/12/12 16:16:14;;;;;;;;;;;;;;;;;;5133680;28;19961;-89
2021/12/12 16:18:41;;;;;;;;;;;;;;;;;;5135543;27;20037;-89
2021/12/12 16:21:08;;;;;;;;;;;;;;;;;;5135562;27;20037;-88
2021/12/12 16:23:35;;;;;;;;;;;;;;;;;;5135128;27;20034;-87
2021/12/12 16:26:02;;;;;;;;;;;;;;;;;;5134962;27;19995;-88
2021/12/12 16:28:29;;;;;;;;;;;;;;;;;;5134589;27;20454;-88
2021/12/12 16:30:56;;;;;;;;;;;;;;;;;;5134476;27;20050;-89
2021/12/12 16:33:23;;;;;;;;;;;;;;;;;;5134179;27;19957;-89
2021/12/12 16:35:50;;;;;;;;;;;;;;;;;;5134460;27;20401;-88
2021/12/12 16:38:17;;;;;;;;;;;;;;;;;;5134686;27;19977;-89
2021/12/12 16:40:44;;;;;;;;;;;;;;;;;;5134811;27;20010;-88
2021/12/12 16:43:11;;;;;;;;;;;;;;;;;;5134795;27;20425;-88
2021/12/12 16:45:39;;;;;;;;;;;;;;;;;;5134975;27;19943;-88
2021/12/12 16:48:06;;;;;;;;;;;;;;;;;;5134469;27;20347;-88
2021/12/12 16:50:33;;;;;;;;;;;;;;;;;;5134115;28;19980;-88
2021/12/12 16:53:00;;;;;;;;;;;;;;;;;;5133579;27;19979;-87
2021/12/12 16:55:27;;;;;;;;;;;;;;;;;;5134103;27;19943;-87
2021/12/12 16:57:54;;;;;;;;;;;;;;;;;;5131567;28;19967;-89
2021/12/12 17:00:22;;;;;;;;;;;;;;;;;;5133802;27;20027;-88
2021/12/12 17:02:49;;;;;;;;;;;;;;;;;;5133946;27;19960;-88